sensor_id;sensor_type;location;lat;lon;timestamp;temperature;humidity
60848;DHT22;46681;47.696;9.140;2023-04-03T00:01:43;11.90;65.30
60848;DHT22;46681;47.696;9.140;2023-04-03T00:04:16;11.80;65.30
60848;DHT22;46681;47.696;9.140;2023-04-03T00:06:45;11.80;65.40
60848;DHT22;46681;47.696;9.140;2023-04-03T00:09:13;11.80;65.30
60848;DHT22;46681;47.696;9.140;2023-04-03T00:11:52;11.80;65.30
60848;DHT22;46681;47.696;9.140;2023-04-03T00:14:18;11.70;65.20
60848;DHT22;46681;47.696;9.140;2023-04-03T00:16:45;11.70;65.40
60848;DHT22;46681;47.696;9.140;2023-04-03T00:19:14;11.70;65.40
60848;DHT22;46681;47.696;9.140;2023-04-03T00:21:45;11.70;65.40
60848;DHT22;46681;47.696;9.140;2023-04-03T00:24:14;11.60;65.40
60848;DHT22;46681;47.696;9.140;2023-04-03T00:26:40;11.60;65.10
60848;DHT22;46681;47.696;9.140;2023-04-03T00:29:08;11.60;65.20
60848;DHT22;46681;47.696;9.140;2023-04-03T00:31:41;11.60;65.30
60848;DHT22;46681;47.696;9.140;2023-04-03T00:34:07;11.50;64.90
60848;DHT22;46681;47.696;9.140;2023-04-03T00:36:33;11.50;65.10
60848;DHT22;46681;47.696;9.140;2023-04-03T00:39:00;11.50;65.20
60848;DHT22;46681;47.696;9.140;2023-04-03T00:41:27;11.50;65.20
60848;DHT22;46681;47.696;9.140;2023-04-03T00:43:53;11.50;65.10
60848;DHT22;46681;47.696;9.140;2023-04-03T00:46:19;11.50;65.00
60848;DHT22;46681;47.696;9.140;2023-04-03T00:48:46;11.40;65.00
60848;DHT22;46681;47.696;9.140;2023-04-03T00:51:23;11.40;65.50
60848;DHT22;46681;47.696;9.140;2023-04-03T00:54:03;11.40;64.90
60848;DHT22;46681;47.696;9.140;2023-04-03T00:56:30;11.40;65.00
60848;DHT22;46681;47.696;9.140;2023-04-03T00:59:14;11.30;64.90
60848;DHT22;46681;47.696;9.140;2023-04-03T01:01:44;11.30;64.80
60848;DHT22;46681;47.696;9.140;2023-04-03T01:04:35;11.30;64.80
60848;DHT22;46681;47.696;9.140;2023-04-03T01:07:08;11.30;65.00
60848;DHT22;46681;47.696;9.140;2023-04-03T01:09:36;11.20;64.80
60848;DHT22;46681;47.696;9.140;2023-04-03T01:14:44;11.20;64.80
60848;DHT22;46681;47.696;9.140;2023-04-03T01:25:33;11.10;64.70
60848;DHT22;46681;47.696;9.140;2023-04-03T01:28:11;11.10;64.80
60848;DHT22;46681;47.696;9.140;2023-04-03T01:33:37;11.00;64.90
60848;DHT22;46681;47.696;9.140;2023-04-03T01:36:03;11.00;65.00
60848;DHT22;46681;47.696;9.140;2023-04-03T01:38:35;11.00;65.00
60848;DHT22;46681;47.696;9.140;2023-04-03T01:41:02;11.00;65.10
60848;DHT22;46681;47.696;9.140;2023-04-03T01:43:34;11.00;64.90
60848;DHT22;46681;47.696;9.140;2023-04-03T01:46:03;11.00;65.00
60848;DHT22;46681;47.696;9.140;2023-04-03T01:48:37;11.00;65.00
60848;DHT22;46681;47.696;9.140;2023-04-03T01:51:03;11.00;64.80
60848;DHT22;46681;47.696;9.140;2023-04-03T01:53:35;10.90;64.70
60848;DHT22;46681;47.696;9.140;2023-04-03T01:56:04;10.90;64.60
60848;DHT22;46681;47.696;9.140;2023-04-03T01:58:36;10.90;64.50
60848;DHT22;46681;47.696;9.140;2023-04-03T02:01:04;10.90;64.50
60848;DHT22;46681;47.696;9.140;2023-04-03T02:03:35;10.90;64.50
60848;DHT22;46681;47.696;9.140;2023-04-03T02:06:07;10.80;64.50
60848;DHT22;46681;47.696;9.140;2023-04-03T02:08:34;10.90;64.30
60848;DHT22;46681;47.696;9.140;2023-04-03T02:11:06;10.80;64.30
60848;DHT22;46681;47.696;9.140;2023-04-03T02:13:32;10.80;64.40
60848;DHT22;46681;47.696;9.140;2023-04-03T02:15:58;10.80;64.10
60848;DHT22;46681;47.696;9.140;2023-04-03T02:18:23;10.80;64.10
60848;DHT22;46681;47.696;9.140;2023-04-03T02:20:49;10.80;64.50
60848;DHT22;46681;47.696;9.140;2023-04-03T02:23:14;10.70;63.80
60848;DHT22;46681;47.696;9.140;2023-04-03T02:25:40;10.70;63.60
60848;DHT22;46681;47.696;9.140;2023-04-03T02:28:06;10.70;63.60
60848;DHT22;46681;47.696;9.140;2023-04-03T02:30:32;10.70;63.60
60848;DHT22;46681;47.696;9.140;2023-04-03T02:32:58;10.70;63.30
60848;DHT22;46681;47.696;9.140;2023-04-03T02:35:23;10.60;63.30
60848;DHT22;46681;47.696;9.140;2023-04-03T02:37:49;10.60;63.20
60848;DHT22;46681;47.696;9.140;2023-04-03T02:40:14;10.60;63.00
60848;DHT22;46681;47.696;9.140;2023-04-03T02:42:42;10.60;62.90
60848;DHT22;46681;47.696;9.140;2023-04-03T02:45:10;10.60;63.00
60848;DHT22;46681;47.696;9.140;2023-04-03T02:47:35;10.60;62.80
60848;DHT22;46681;47.696;9.140;2023-04-03T02:50:01;10.50;62.80
60848;DHT22;46681;47.696;9.140;2023-04-03T02:52:32;10.50;62.60
60848;DHT22;46681;47.696;9.140;2023-04-03T02:54:57;10.50;62.70
60848;DHT22;46681;47.696;9.140;2023-04-03T02:57:23;10.50;62.60
60848;DHT22;46681;47.696;9.140;2023-04-03T02:59:48;10.50;62.50
60848;DHT22;46681;47.696;9.140;2023-04-03T03:02:14;10.40;62.30
60848;DHT22;46681;47.696;9.140;2023-04-03T03:04:39;10.40;62.20
60848;DHT22;46681;47.696;9.140;2023-04-03T03:07:05;10.40;62.30
60848;DHT22;46681;47.696;9.140;2023-04-03T03:09:31;10.40;62.30
60848;DHT22;46681;47.696;9.140;2023-04-03T03:11:57;10.40;62.20
60848;DHT22;46681;47.696;9.140;2023-04-03T03:14:23;10.40;62.40
60848;DHT22;46681;47.696;9.140;2023-04-03T03:16:48;10.30;62.00
60848;DHT22;46681;47.696;9.140;2023-04-03T03:19:14;10.30;61.80
60848;DHT22;46681;47.696;9.140;2023-04-03T03:21:39;10.30;62.10
60848;DHT22;46681;47.696;9.140;2023-04-03T03:24:06;10.30;61.80
60848;DHT22;46681;47.696;9.140;2023-04-03T03:26:32;10.30;61.90
60848;DHT22;46681;47.696;9.140;2023-04-03T03:28:57;10.30;61.90
60848;DHT22;46681;47.696;9.140;2023-04-03T03:31:23;10.30;62.00
60848;DHT22;46681;47.696;9.140;2023-04-03T03:33:49;10.20;61.80
60848;DHT22;46681;47.696;9.140;2023-04-03T03:36:14;10.20;61.80
60848;DHT22;46681;47.696;9.140;2023-04-03T03:38:40;10.20;61.60
60848;DHT22;46681;47.696;9.140;2023-04-03T03:41:05;10.20;61.70
60848;DHT22;46681;47.696;9.140;2023-04-03T03:43:31;10.20;61.70
60848;DHT22;46681;47.696;9.140;2023-04-03T03:45:56;10.20;61.50
60848;DHT22;46681;47.696;9.140;2023-04-03T03:48:22;10.20;61.70
60848;DHT22;46681;47.696;9.140;2023-04-03T03:50:49;10.20;61.50
60848;DHT22;46681;47.696;9.140;2023-04-03T03:53:15;10.20;62.30
60848;DHT22;46681;47.696;9.140;2023-04-03T03:55:42;10.20;62.30
60848;DHT22;46681;47.696;9.140;2023-04-03T03:58:10;10.30;62.80
60848;DHT22;46681;47.696;9.140;2023-04-03T04:00:39;10.30;62.10
60848;DHT22;46681;47.696;9.140;2023-04-03T04:03:04;10.20;61.80
60848;DHT22;46681;47.696;9.140;2023-04-03T04:05:30;10.20;61.40
60848;DHT22;46681;47.696;9.140;2023-04-03T04:07:56;10.20;61.20
60848;DHT22;46681;47.696;9.140;2023-04-03T04:10:23;10.20;61.00
60848;DHT22;46681;47.696;9.140;2023-04-03T04:12:48;10.20;61.40
60848;DHT22;46681;47.696;9.140;2023-04-03T04:15:14;10.30;63.50
60848;DHT22;46681;47.696;9.140;2023-04-03T04:17:41;10.30;61.60
60848;DHT22;46681;47.696;9.140;2023-04-03T04:20:09;10.20;61.10
60848;DHT22;46681;47.696;9.140;2023-04-03T04:22:35;10.20;61.10
60848;DHT22;46681;47.696;9.140;2023-04-03T04:25:01;10.20;61.20
60848;DHT22;46681;47.696;9.140;2023-04-03T04:27:26;10.20;61.20
60848;DHT22;46681;47.696;9.140;2023-04-03T04:29:52;10.20;61.20
60848;DHT22;46681;47.696;9.140;2023-04-03T04:32:25;10.10;61.10
60848;DHT22;46681;47.696;9.140;2023-04-03T04:34:56;10.10;61.30
60848;DHT22;46681;47.696;9.140;2023-04-03T04:37:25;10.10;61.30
60848;DHT22;46681;47.696;9.140;2023-04-03T04:39:50;10.10;61.30
60848;DHT22;46681;47.696;9.140;2023-04-03T04:42:16;10.10;61.20
60848;DHT22;46681;47.696;9.140;2023-04-03T04:44:41;10.10;61.10
60848;DHT22;46681;47.696;9.140;2023-04-03T04:47:10;10.00;61.20
60848;DHT22;46681;47.696;9.140;2023-04-03T04:49:35;10.10;61.30
60848;DHT22;46681;47.696;9.140;2023-04-03T04:52:01;10.10;61.40
60848;DHT22;46681;47.696;9.140;2023-04-03T04:54:28;10.00;61.30
60848;DHT22;46681;47.696;9.140;2023-04-03T04:56:54;10.00;61.40
60848;DHT22;46681;47.696;9.140;2023-04-03T04:59:20;10.00;61.30
60848;DHT22;46681;47.696;9.140;2023-04-03T05:01:48;10.00;61.00
60848;DHT22;46681;47.696;9.140;2023-04-03T05:04:13;10.00;60.80
60848;DHT22;46681;47.696;9.140;2023-04-03T05:06:41;10.00;60.50
60848;DHT22;46681;47.696;9.140;2023-04-03T05:09:06;9.90;60.30
60848;DHT22;46681;47.696;9.140;2023-04-03T05:11:32;9.90;60.10
60848;DHT22;46681;47.696;9.140;2023-04-03T05:13:58;9.90;59.90
60848;DHT22;46681;47.696;9.140;2023-04-03T05:16:27;9.90;59.80
60848;DHT22;46681;47.696;9.140;2023-04-03T05:18:52;9.90;59.60
60848;DHT22;46681;47.696;9.140;2023-04-03T05:21:20;9.90;59.50
60848;DHT22;46681;47.696;9.140;2023-04-03T05:23:49;9.80;59.50
60848;DHT22;46681;47.696;9.140;2023-04-03T05:26:18;9.80;59.60
60848;DHT22;46681;47.696;9.140;2023-04-03T05:28:47;9.80;60.00
60848;DHT22;46681;47.696;9.140;2023-04-03T05:31:13;9.80;59.50
60848;DHT22;46681;47.696;9.140;2023-04-03T05:33:44;9.90;60.70
60848;DHT22;46681;47.696;9.140;2023-04-03T05:36:10;9.90;59.70
60848;DHT22;46681;47.696;9.140;2023-04-03T05:38:39;9.80;59.30
60848;DHT22;46681;47.696;9.140;2023-04-03T05:41:05;9.80;59.10
60848;DHT22;46681;47.696;9.140;2023-04-03T05:43:30;9.80;59.00
60848;DHT22;46681;47.696;9.140;2023-04-03T05:45:59;9.80;59.30
60848;DHT22;46681;47.696;9.140;2023-04-03T05:48:37;9.80;59.00
60848;DHT22;46681;47.696;9.140;2023-04-03T05:51:04;9.80;59.10
60848;DHT22;46681;47.696;9.140;2023-04-03T05:53:31;9.80;59.10
60848;DHT22;46681;47.696;9.140;2023-04-03T05:56:07;9.80;58.90
60848;DHT22;46681;47.696;9.140;2023-04-03T05:58:33;9.80;59.00
60848;DHT22;46681;47.696;9.140;2023-04-03T06:01:09;9.80;58.90
60848;DHT22;46681;47.696;9.140;2023-04-03T06:03:43;9.80;58.90
60848;DHT22;46681;47.696;9.140;2023-04-03T06:06:19;9.80;58.90
60848;DHT22;46681;47.696;9.140;2023-04-03T06:08:45;9.80;59.00
60848;DHT22;46681;47.696;9.140;2023-04-03T06:11:13;9.80;59.00
60848;DHT22;46681;47.696;9.140;2023-04-03T06:13:45;9.70;58.90
60848;DHT22;46681;47.696;9.140;2023-04-03T06:16:15;9.80;58.90
60848;DHT22;46681;47.696;9.140;2023-04-03T06:18:42;9.80;59.20
60848;DHT22;46681;47.696;9.140;2023-04-03T06:21:11;9.80;59.00
60848;DHT22;46681;47.696;9.140;2023-04-03T06:23:37;9.80;58.80
60848;DHT22;46681;47.696;9.140;2023-04-03T06:26:03;9.90;58.90
60848;DHT22;46681;47.696;9.140;2023-04-03T06:28:31;9.80;58.80
60848;DHT22;46681;47.696;9.140;2023-04-03T06:30:57;9.80;58.70
60848;DHT22;46681;47.696;9.140;2023-04-03T06:33:27;9.90;58.70
60848;DHT22;46681;47.696;9.140;2023-04-03T06:35:59;9.90;58.70
60848;DHT22;46681;47.696;9.140;2023-04-03T06:38:27;9.90;58.70
60848;DHT22;46681;47.696;9.140;2023-04-03T06:40:59;9.80;58.50
60848;DHT22;46681;47.696;9.140;2023-04-03T06:43:27;9.80;58.50
60848;DHT22;46681;47.696;9.140;2023-04-03T06:45:53;9.90;58.60
60848;DHT22;46681;47.696;9.140;2023-04-03T06:48:20;9.90;58.50
60848;DHT22;46681;47.696;9.140;2023-04-03T06:50:52;9.90;58.60
60848;DHT22;46681;47.696;9.140;2023-04-03T06:53:20;9.90;58.50
60848;DHT22;46681;47.696;9.140;2023-04-03T06:55:49;9.90;58.40
60848;DHT22;46681;47.696;9.140;2023-04-03T06:58:17;9.90;58.30
60848;DHT22;46681;47.696;9.140;2023-04-03T07:00:45;9.90;58.20
60848;DHT22;46681;47.696;9.140;2023-04-03T07:03:10;9.90;58.00
60848;DHT22;46681;47.696;9.140;2023-04-03T07:05:42;10.00;58.20
60848;DHT22;46681;47.696;9.140;2023-04-03T07:08:14;10.00;58.20
60848;DHT22;46681;47.696;9.140;2023-04-03T07:10:48;10.00;58.20
60848;DHT22;46681;47.696;9.140;2023-04-03T07:13:16;10.00;58.20
60848;DHT22;46681;47.696;9.140;2023-04-03T07:15:47;10.00;58.20
60848;DHT22;46681;47.696;9.140;2023-04-03T07:18:12;10.00;58.00
60848;DHT22;46681;47.696;9.140;2023-04-03T07:20:43;10.00;57.80
60848;DHT22;46681;47.696;9.140;2023-04-03T07:23:13;10.10;57.80
60848;DHT22;46681;47.696;9.140;2023-04-03T07:25:50;10.10;57.80
60848;DHT22;46681;47.696;9.140;2023-04-03T07:28:21;10.10;57.70
60848;DHT22;46681;47.696;9.140;2023-04-03T07:31:03;10.10;57.70
60848;DHT22;46681;47.696;9.140;2023-04-03T07:33:32;10.10;57.60
60848;DHT22;46681;47.696;9.140;2023-04-03T07:36:02;10.20;57.60
60848;DHT22;46681;47.696;9.140;2023-04-03T07:38:31;10.20;57.50
60848;DHT22;46681;47.696;9.140;2023-04-03T07:40:59;10.20;57.60
60848;DHT22;46681;47.696;9.140;2023-04-03T07:43:27;10.20;57.60
60848;DHT22;46681;47.696;9.140;2023-04-03T07:45:53;10.30;57.50
60848;DHT22;46681;47.696;9.140;2023-04-03T07:48:27;10.30;57.40
60848;DHT22;46681;47.696;9.140;2023-04-03T07:51:04;10.30;57.40
60848;DHT22;46681;47.696;9.140;2023-04-03T07:53:46;10.30;57.20
60848;DHT22;46681;47.696;9.140;2023-04-03T07:56:16;10.30;57.20
60848;DHT22;46681;47.696;9.140;2023-04-03T07:58:46;10.40;57.20
60848;DHT22;46681;47.696;9.140;2023-04-03T08:01:18;10.40;57.10
60848;DHT22;46681;47.696;9.140;2023-04-03T08:03:53;10.40;56.90
60848;DHT22;46681;47.696;9.140;2023-04-03T08:06:21;10.40;56.90
60848;DHT22;46681;47.696;9.140;2023-04-03T08:08:47;10.50;56.90
60848;DHT22;46681;47.696;9.140;2023-04-03T08:11:12;10.50;56.90
60848;DHT22;46681;47.696;9.140;2023-04-03T08:13:46;10.60;56.90
60848;DHT22;46681;47.696;9.140;2023-04-03T08:16:18;10.50;56.70
60848;DHT22;46681;47.696;9.140;2023-04-03T08:18:46;10.60;56.60
60848;DHT22;46681;47.696;9.140;2023-04-03T08:21:12;10.60;56.50
60848;DHT22;46681;47.696;9.140;2023-04-03T08:23:41;10.70;56.60
60848;DHT22;46681;47.696;9.140;2023-04-03T08:26:18;10.70;56.50
60848;DHT22;46681;47.696;9.140;2023-04-03T08:28:45;10.70;56.50
60848;DHT22;46681;47.696;9.140;2023-04-03T08:31:16;10.80;56.50
60848;DHT22;46681;47.696;9.140;2023-04-03T08:33:49;10.80;56.40
60848;DHT22;46681;47.696;9.140;2023-04-03T08:36:27;10.80;56.30
60848;DHT22;46681;47.696;9.140;2023-04-03T08:38:56;10.90;56.30
60848;DHT22;46681;47.696;9.140;2023-04-03T08:41:33;10.90;56.10
60848;DHT22;46681;47.696;9.140;2023-04-03T08:50:07;11.10;56.10
60848;DHT22;46681;47.696;9.140;2023-04-03T08:52:44;11.10;56.00
60848;DHT22;46681;47.696;9.140;2023-04-03T08:55:28;11.10;56.00
60848;DHT22;46681;47.696;9.140;2023-04-03T08:58:12;11.20;55.90
60848;DHT22;46681;47.696;9.140;2023-04-03T09:00:51;11.20;55.80
60848;DHT22;46681;47.696;9.140;2023-04-03T09:03:29;11.20;55.80
60848;DHT22;46681;47.696;9.140;2023-04-03T09:06:11;11.30;55.80
60848;DHT22;46681;47.696;9.140;2023-04-03T09:08:50;11.30;55.80
60848;DHT22;46681;47.696;9.140;2023-04-03T09:11:26;11.30;55.70
60848;DHT22;46681;47.696;9.140;2023-04-03T09:14:15;11.40;55.90
60848;DHT22;46681;47.696;9.140;2023-04-03T09:16:59;11.40;55.70
60848;DHT22;46681;47.696;9.140;2023-04-03T09:19:44;11.40;55.50
60848;DHT22;46681;47.696;9.140;2023-04-03T09:22:28;11.50;55.60
60848;DHT22;46681;47.696;9.140;2023-04-03T09:25:30;11.50;55.80
60848;DHT22;46681;47.696;9.140;2023-04-03T09:28:06;11.50;55.40
60848;DHT22;46681;47.696;9.140;2023-04-03T09:31:01;11.60;55.50
60848;DHT22;46681;47.696;9.140;2023-04-03T09:33:33;11.60;55.40
60848;DHT22;46681;47.696;9.140;2023-04-03T09:36:03;11.60;55.40
60848;DHT22;46681;47.696;9.140;2023-04-03T09:39:02;11.70;55.40
60848;DHT22;46681;47.696;9.140;2023-04-03T09:41:28;11.70;55.30
60848;DHT22;46681;47.696;9.140;2023-04-03T09:44:33;11.70;55.00
60848;DHT22;46681;47.696;9.140;2023-04-03T09:47:30;11.80;55.20
60848;DHT22;46681;47.696;9.140;2023-04-03T09:50:21;11.90;55.00
60848;DHT22;46681;47.696;9.140;2023-04-03T09:52:53;11.90;54.80
60848;DHT22;46681;47.696;9.140;2023-04-03T09:55:22;11.90;54.10
60848;DHT22;46681;47.696;9.140;2023-04-03T09:57:51;12.00;54.40
60848;DHT22;46681;47.696;9.140;2023-04-03T10:03:22;12.00;54.30
60848;DHT22;46681;47.696;9.140;2023-04-03T10:06:03;12.10;53.40
60848;DHT22;46681;47.696;9.140;2023-04-03T10:08:39;12.10;53.50
60848;DHT22;46681;47.696;9.140;2023-04-03T10:11:21;12.20;53.70
60848;DHT22;46681;47.696;9.140;2023-04-03T10:14:03;12.20;53.40
60848;DHT22;46681;47.696;9.140;2023-04-03T10:16:47;12.20;53.50
60848;DHT22;46681;47.696;9.140;2023-04-03T10:19:53;12.30;53.40
60848;DHT22;46681;47.696;9.140;2023-04-03T10:22:56;12.30;53.30
60848;DHT22;46681;47.696;9.140;2023-04-03T10:36:19;12.40;53.00
60848;DHT22;46681;47.696;9.140;2023-04-03T10:58:57;12.70;51.70
60848;DHT22;46681;47.696;9.140;2023-04-03T11:01:34;12.80;52.10
60848;DHT22;46681;47.696;9.140;2023-04-03T11:04:16;12.90;52.10
60848;DHT22;46681;47.696;9.140;2023-04-03T11:09:34;12.90;51.20
60848;DHT22;46681;47.696;9.140;2023-04-03T11:15:26;13.00;51.50
60848;DHT22;46681;47.696;9.140;2023-04-03T11:18:14;13.00;50.80
60848;DHT22;46681;47.696;9.140;2023-04-03T11:21:46;13.00;51.10
60848;DHT22;46681;47.696;9.140;2023-04-03T11:24:01;13.10;50.70
60848;DHT22;46681;47.696;9.140;2023-04-03T11:26:40;13.10;50.90
60848;DHT22;46681;47.696;9.140;2023-04-03T11:29:18;13.10;51.50
60848;DHT22;46681;47.696;9.140;2023-04-03T11:35:07;13.00;51.70
60848;DHT22;46681;47.696;9.140;2023-04-03T11:37:48;13.00;51.80
60848;DHT22;46681;47.696;9.140;2023-04-03T11:40:29;13.00;51.70
60848;DHT22;46681;47.696;9.140;2023-04-03T11:43:31;13.00;51.60
60848;DHT22;46681;47.696;9.140;2023-04-03T11:46:08;13.00;51.80
60848;DHT22;46681;47.696;9.140;2023-04-03T11:48:44;13.00;51.60
60848;DHT22;46681;47.696;9.140;2023-04-03T12:03:33;12.90;51.60
60848;DHT22;46681;47.696;9.140;2023-04-03T12:08:45;12.90;51.50
60848;DHT22;46681;47.696;9.140;2023-04-03T12:11:29;12.90;51.40
60848;DHT22;46681;47.696;9.140;2023-04-03T12:22:04;13.00;51.30
60848;DHT22;46681;47.696;9.140;2023-04-03T12:24:25;12.90;51.10
60848;DHT22;46681;47.696;9.140;2023-04-03T12:29:35;13.00;51.00
60848;DHT22;46681;47.696;9.140;2023-04-03T12:35:34;13.00;51.20
60848;DHT22;46681;47.696;9.140;2023-04-03T12:44:43;12.90;50.60
60848;DHT22;46681;47.696;9.140;2023-04-03T12:47:29;12.90;49.70
60848;DHT22;46681;47.696;9.140;2023-04-03T12:50:01;12.90;49.90
60848;DHT22;46681;47.696;9.140;2023-04-03T12:52:56;12.90;49.80
60848;DHT22;46681;47.696;9.140;2023-04-03T12:55:28;13.00;49.90
60848;DHT22;46681;47.696;9.140;2023-04-03T12:57:55;13.00;49.90
60848;DHT22;46681;47.696;9.140;2023-04-03T13:00:38;13.00;49.80
60848;DHT22;46681;47.696;9.140;2023-04-03T13:03:37;13.00;49.20
60848;DHT22;46681;47.696;9.140;2023-04-03T13:06:46;12.90;48.70
60848;DHT22;46681;47.696;9.140;2023-04-03T13:09:37;12.80;46.80
60848;DHT22;46681;47.696;9.140;2023-04-03T13:12:15;12.90;46.90
60848;DHT22;46681;47.696;9.140;2023-04-03T13:15:20;12.90;47.20
60848;DHT22;46681;47.696;9.140;2023-04-03T13:17:49;12.90;47.70
60848;DHT22;46681;47.696;9.140;2023-04-03T13:20:31;13.00;48.10
60848;DHT22;46681;47.696;9.140;2023-04-03T13:23:05;13.00;48.20
60848;DHT22;46681;47.696;9.140;2023-04-03T13:25:45;13.00;48.30
60848;DHT22;46681;47.696;9.140;2023-04-03T13:31:18;13.10;47.80
60848;DHT22;46681;47.696;9.140;2023-04-03T13:36:57;13.10;48.30
60848;DHT22;46681;47.696;9.140;2023-04-03T13:43:19;13.20;48.60
60848;DHT22;46681;47.696;9.140;2023-04-03T13:45:36;13.20;48.70
60848;DHT22;46681;47.696;9.140;2023-04-03T13:48:19;13.20;48.60
60848;DHT22;46681;47.696;9.140;2023-04-03T13:53:24;13.20;47.90
60848;DHT22;46681;47.696;9.140;2023-04-03T13:56:21;13.20;48.20
60848;DHT22;46681;47.696;9.140;2023-04-03T14:02:18;13.30;48.10
60848;DHT22;46681;47.696;9.140;2023-04-03T14:05:19;13.30;48.20
60848;DHT22;46681;47.696;9.140;2023-04-03T14:08:03;13.30;48.40
60848;DHT22;46681;47.696;9.140;2023-04-03T14:10:50;13.30;48.30
60848;DHT22;46681;47.696;9.140;2023-04-03T14:13:45;13.30;47.80
60848;DHT22;46681;47.696;9.140;2023-04-03T14:17:00;13.30;47.90
60848;DHT22;46681;47.696;9.140;2023-04-03T14:19:44;13.30;47.70
60848;DHT22;46681;47.696;9.140;2023-04-03T14:22:43;13.30;48.60
60848;DHT22;46681;47.696;9.140;2023-04-03T14:25:36;13.30;48.20
60848;DHT22;46681;47.696;9.140;2023-04-03T14:28:15;13.30;48.10
60848;DHT22;46681;47.696;9.140;2023-04-03T14:30:51;13.30;48.10
60848;DHT22;46681;47.696;9.140;2023-04-03T14:33:30;13.30;48.00
60848;DHT22;46681;47.696;9.140;2023-04-03T14:35:56;13.30;48.10
60848;DHT22;46681;47.696;9.140;2023-04-03T14:38:34;13.30;48.10
60848;DHT22;46681;47.696;9.140;2023-04-03T14:41:03;13.30;48.10
60848;DHT22;46681;47.696;9.140;2023-04-03T14:43:36;13.20;48.30
60848;DHT22;46681;47.696;9.140;2023-04-03T14:46:38;13.20;48.20
60848;DHT22;46681;47.696;9.140;2023-04-03T14:49:27;13.20;48.30
60848;DHT22;46681;47.696;9.140;2023-04-03T14:52:04;13.20;49.20
60848;DHT22;46681;47.696;9.140;2023-04-03T14:54:35;13.20;48.80
60848;DHT22;46681;47.696;9.140;2023-04-03T14:57:34;13.20;48.10
60848;DHT22;46681;47.696;9.140;2023-04-03T15:00:22;13.20;47.90
60848;DHT22;46681;47.696;9.140;2023-04-03T15:03:09;13.20;47.90
60848;DHT22;46681;47.696;9.140;2023-04-03T15:05:51;13.10;48.10
60848;DHT22;46681;47.696;9.140;2023-04-03T15:08:46;13.20;48.00
60848;DHT22;46681;47.696;9.140;2023-04-03T15:11:22;13.10;48.10
60848;DHT22;46681;47.696;9.140;2023-04-03T15:13:57;13.10;47.90
60848;DHT22;46681;47.696;9.140;2023-04-03T15:16:41;13.10;47.90
60848;DHT22;46681;47.696;9.140;2023-04-03T15:19:07;13.10;47.90
60848;DHT22;46681;47.696;9.140;2023-04-03T15:21:39;13.00;48.00
60848;DHT22;46681;47.696;9.140;2023-04-03T15:24:13;13.00;48.00
60848;DHT22;46681;47.696;9.140;2023-04-03T15:26:44;13.00;47.90
60848;DHT22;46681;47.696;9.140;2023-04-03T15:29:10;13.00;47.80
60848;DHT22;46681;47.696;9.140;2023-04-03T15:31:38;13.00;47.90
60848;DHT22;46681;47.696;9.140;2023-04-03T15:34:06;12.90;47.70
60848;DHT22;46681;47.696;9.140;2023-04-03T15:36:39;12.90;47.60
60848;DHT22;46681;47.696;9.140;2023-04-03T15:39:04;12.90;47.80
60848;DHT22;46681;47.696;9.140;2023-04-03T15:41:37;12.90;47.90
60848;DHT22;46681;47.696;9.140;2023-04-03T15:44:12;12.80;47.90
60848;DHT22;46681;47.696;9.140;2023-04-03T15:46:39;12.80;48.10
60848;DHT22;46681;47.696;9.140;2023-04-03T15:49:14;12.80;48.10
60848;DHT22;46681;47.696;9.140;2023-04-03T15:51:44;12.80;48.30
60848;DHT22;46681;47.696;9.140;2023-04-03T15:54:17;12.80;48.40
60848;DHT22;46681;47.696;9.140;2023-04-03T15:56:42;12.70;48.30
60848;DHT22;46681;47.696;9.140;2023-04-03T15:59:15;12.70;48.20
60848;DHT22;46681;47.696;9.140;2023-04-03T16:01:40;12.70;48.20
60848;DHT22;46681;47.696;9.140;2023-04-03T16:04:08;12.70;48.40
60848;DHT22;46681;47.696;9.140;2023-04-03T16:06:39;12.70;48.50
60848;DHT22;46681;47.696;9.140;2023-04-03T16:09:11;12.70;48.40
60848;DHT22;46681;47.696;9.140;2023-04-03T16:11:39;12.60;48.50
60848;DHT22;46681;47.696;9.140;2023-04-03T16:14:08;12.60;48.60
60848;DHT22;46681;47.696;9.140;2023-04-03T16:16:38;12.50;48.50
60848;DHT22;46681;47.696;9.140;2023-04-03T16:19:07;12.50;48.50
60848;DHT22;46681;47.696;9.140;2023-04-03T16:21:39;12.50;48.70
60848;DHT22;46681;47.696;9.140;2023-04-03T16:24:10;12.50;48.60
60848;DHT22;46681;47.696;9.140;2023-04-03T16:26:46;12.50;48.60
60848;DHT22;46681;47.696;9.140;2023-04-03T16:29:13;12.50;48.50
60848;DHT22;46681;47.696;9.140;2023-04-03T16:31:44;12.40;48.50
60848;DHT22;46681;47.696;9.140;2023-04-03T16:34:16;12.40;48.50
60848;DHT22;46681;47.696;9.140;2023-04-03T16:36:47;12.40;48.70
60848;DHT22;46681;47.696;9.140;2023-04-03T16:39:13;12.40;48.70
60848;DHT22;46681;47.696;9.140;2023-04-03T16:41:49;12.30;48.60
60848;DHT22;46681;47.696;9.140;2023-04-03T16:44:15;12.30;48.80
60848;DHT22;46681;47.696;9.140;2023-04-03T16:46:46;12.30;48.80
60848;DHT22;46681;47.696;9.140;2023-04-03T16:49:17;12.20;48.80
60848;DHT22;46681;47.696;9.140;2023-04-03T16:51:51;12.20;48.80
60848;DHT22;46681;47.696;9.140;2023-04-03T16:54:17;12.20;49.20
60848;DHT22;46681;47.696;9.140;2023-04-03T16:56:43;12.20;49.30
60848;DHT22;46681;47.696;9.140;2023-04-03T16:59:10;12.20;49.60
60848;DHT22;46681;47.696;9.140;2023-04-03T17:01:36;12.10;49.20
60848;DHT22;46681;47.696;9.140;2023-04-03T17:04:05;12.10;49.20
60848;DHT22;46681;47.696;9.140;2023-04-03T17:06:40;12.10;49.10
60848;DHT22;46681;47.696;9.140;2023-04-03T17:09:09;12.00;49.20
60848;DHT22;46681;47.696;9.140;2023-04-03T17:11:38;12.00;49.10
60848;DHT22;46681;47.696;9.140;2023-04-03T17:14:08;12.00;49.10
60848;DHT22;46681;47.696;9.140;2023-04-03T17:16:38;11.90;49.10
60848;DHT22;46681;47.696;9.140;2023-04-03T17:19:08;11.90;49.10
60848;DHT22;46681;47.696;9.140;2023-04-03T17:21:38;11.80;48.90
60848;DHT22;46681;47.696;9.140;2023-04-03T17:24:07;11.80;49.10
60848;DHT22;46681;47.696;9.140;2023-04-03T17:26:36;11.80;49.10
60848;DHT22;46681;47.696;9.140;2023-04-03T17:29:04;11.70;49.10
60848;DHT22;46681;47.696;9.140;2023-04-03T17:31:31;11.70;49.10
60848;DHT22;46681;47.696;9.140;2023-04-03T17:33:58;11.70;49.50
60848;DHT22;46681;47.696;9.140;2023-04-03T17:36:23;11.70;49.10
60848;DHT22;46681;47.696;9.140;2023-04-03T17:38:52;11.60;49.20
60848;DHT22;46681;47.696;9.140;2023-04-03T17:41:17;11.60;49.30
60848;DHT22;46681;47.696;9.140;2023-04-03T17:43:46;11.50;49.20
60848;DHT22;46681;47.696;9.140;2023-04-03T17:46:12;11.50;49.30
60848;DHT22;46681;47.696;9.140;2023-04-03T17:48:39;11.50;49.20
60848;DHT22;46681;47.696;9.140;2023-04-03T17:51:15;11.40;49.20
60848;DHT22;46681;47.696;9.140;2023-04-03T17:53:40;11.50;49.40
60848;DHT22;46681;47.696;9.140;2023-04-03T17:56:16;11.40;49.40
60848;DHT22;46681;47.696;9.140;2023-04-03T17:58:53;11.40;49.40
60848;DHT22;46681;47.696;9.140;2023-04-03T18:01:25;11.30;49.40